Time;durP1;ratioP1;P1;durP2;ratioP2;P2;SDS_P1;SDS_P2;PMS_P1;PMS_P2;Temp;Humidity;BMP_temperature;BMP_pressure;BME280_temperature;BME280_humidity;BME280_pressure;Samples;Min_cycle;Max_cycle;Signal;HPM_P1;HPM_P2
2021/01/08 00:00:15;;;;;;;20.83;14.68;;;;;;;0.88;94.60;99898.28;5033578;28;20057;-70
2021/01/08 00:02:41;;;;;;;19.17;14.63;;;;;;;0.82;94.97;99906.34;5034797;28;20057;-70
2021/01/08 00:05:08;;;;;;;19.42;14.27;;;;;;;0.73;95.15;99882.91;5034727;28;20073;-70
2021/01/08 00:07:36;;;;;;;20.08;14.98;;;;;;;0.80;95.21;99884.50;5034467;28;20053;-70
2021/01/08 00:10:04;;;;;;;17.02;13.18;;;;;;;0.79;94.79;99907.28;5034501;28;20616;-70
2021/01/08 00:12:31;;;;;;;20.95;15.27;;;;;;;0.81;95.50;99899.34;5034448;28;20068;-70
2021/01/08 00:14:57;;;;;;;19.00;14.98;;;;;;;0.80;95.44;99895.88;5049492;28;20053;-70
2021/01/08 00:17:27;;;;;;;19.33;15.20;;;;;;;0.71;95.43;99879.47;5034691;28;20096;-71
2021/01/08 00:19:53;;;;;;;16.73;12.45;;;;;;;0.72;94.95;99892.59;5034515;28;20348;-70
2021/01/08 00:22:20;;;;;;;20.63;16.13;;;;;;;0.67;95.42;99884.78;5037452;28;20050;-70
2021/01/08 00:24:51;;;;;;;22.48;16.63;;;;;;;0.74;95.71;99892.53;5038285;28;20054;-70
2021/01/08 00:27:18;;;;;;;20.50;15.68;;;;;;;0.74;95.59;99900.41;5037232;28;20046;-70
2021/01/08 00:29:45;;;;;;;22.15;16.85;;;;;;;0.53;95.85;99865.88;5038403;28;20066;-70
2021/01/08 00:32:16;;;;;;;;;;;;;;;0.67;95.69;99892.66;5053649;28;20406;-70
2021/01/08 00:34:42;;;;;;;19.52;14.57;;;;;;;0.65;95.80;99886.59;5038405;28;19925;-71
2021/01/08 00:37:09;;;;;;;18.38;13.05;;;;;;;0.60;95.65;99887.63;5038121;28;20096;-71
2021/01/08 00:39:36;;;;;;;20.98;15.25;;;;;;;0.48;96.07;99887.00;5038246;28;20115;-70
2021/01/08 00:42:03;;;;;;;18.83;14.02;;;;;;;0.54;96.44;99878.09;5038457;28;20075;-71
2021/01/08 00:44:30;;;;;;;19.55;15.32;;;;;;;0.59;96.11;99884.13;5036762;28;20416;-70
2021/01/08 00:46:56;;;;;;;19.38;14.18;;;;;;;0.63;96.38;99888.41;5037161;28;20053;-70
2021/01/08 00:49:23;;;;;;;17.70;13.45;;;;;;;0.56;96.33;99868.44;5038102;28;20077;-71
2021/01/08 00:51:49;;;;;;;19.40;14.10;;;;;;;0.69;96.43;99886.53;5038254;28;20049;-70
2021/01/08 00:54:15;;;;;;;18.17;13.32;;;;;;;0.56;96.10;99876.31;5038141;28;20049;-71
2021/01/08 00:56:41;;;;;;;17.38;13.55;;;;;;;0.62;96.36;99886.69;5036716;28;20510;-71
2021/01/08 00:59:07;;;;;;;16.38;11.73;;;;;;;0.65;96.34;99881.34;5037638;28;20049;-71
2021/01/08 01:01:33;;;;;;;15.73;12.52;;;;;;;0.67;96.52;99881.31;5038047;28;20053;-71
2021/01/08 01:04:00;;;;;;;15.60;13.15;;;;;;;0.63;96.39;99871.78;5037948;28;20049;-71
2021/01/08 01:06:31;;;;;;;17.40;14.00;;;;;;;0.62;96.02;99876.19;5037793;28;20064;-71
2021/01/08 01:08:58;;;;;;;17.73;12.98;;;;;;;0.64;96.30;99884.88;5037614;28;20079;-71
2021/01/08 01:11:27;;;;;;;18.58;14.20;;;;;;;0.57;96.66;99877.19;5037610;28;20057;-70
2021/01/08 01:13:56;;;;;;;15.18;12.15;;;;;;;0.66;96.29;99883.06;5036585;28;20053;-72
2021/01/08 01:16:27;;;;;;;16.80;12.18;;;;;;;0.53;96.62;99866.75;5037683;28;20099;-71
2021/01/08 01:18:56;;;;;;;18.10;12.82;;;;;;;0.62;96.60;99870.94;5037636;28;20049;-71
2021/01/08 01:21:24;;;;;;;16.02;11.23;;;;;;;0.65;96.22;99877.88;5037421;28;20419;-71
2021/01/08 01:23:50;;;;;;;18.67;13.25;;;;;;;0.69;96.77;99876.88;5037348;28;20053;-73
2021/01/08 01:26:16;;;;;;;17.55;13.23;;;;;;;0.65;96.86;99880.50;5037361;28;20049;-73
2021/01/08 01:28:43;;;;;;;18.23;13.02;;;;;;;0.63;96.53;99879.66;5052610;28;20061;-71
2021/01/08 01:31:09;;;;;;;14.48;12.45;;;;;;;0.45;97.07;99854.72;5037525;28;20057;-70
2021/01/08 01:33:36;;;;;;;17.20;12.65;;;;;;;0.63;96.58;99883.16;5036352;28;20080;-72
2021/01/08 01:36:09;;;;;;;15.75;12.10;;;;;;;0.50;96.12;99881.72;5037013;28;20111;-70
2021/01/08 01:38:36;;;;;;;18.45;11.80;;;;;;;0.49;96.76;99882.63;5037070;28;20042;-72
2021/01/08 01:41:03;;;;;;;23.10;13.02;;;;;;;0.53;96.59;99889.50;5036216;28;20049;-70
2021/01/08 01:43:30;;;;;;;17.23;12.48;;;;;;;0.49;96.66;99887.88;5037293;28;20054;-72
2021/01/08 01:45:56;;;;;;;17.08;11.98;;;;;;;0.42;96.57;99878.44;5036958;28;20053;-71
2021/01/08 01:48:23;;;;;;;15.35;12.20;;;;;;;0.54;96.90;99899.13;5036833;28;20150;-72
2021/01/08 01:50:50;;;;;;;16.98;13.07;;;;;;;0.59;96.77;99902.50;5036787;28;20350;-71
2021/01/08 01:53:17;;;;;;;12.82;9.45;;;;;;;0.61;96.07;99890.19;5037024;28;20061;-73
2021/01/08 01:55:45;;;;;;;18.90;13.10;;;;;;;0.56;96.66;99902.59;5036975;28;20049;-72
2021/01/08 01:58:11;;;;;;;15.45;11.07;;;;;;;0.61;96.82;99898.06;5036711;28;20052;-71
2021/01/08 02:00:37;;;;;;;15.43;12.43;;;;;;;0.56;96.56;99907.84;5036969;28;20053;-70
2021/01/08 02:03:25;;;;;;;16.85;12.90;;;;;;;0.53;96.53;99889.50;5053124;28;20053;-72
2021/01/08 02:05:57;;;;;;;15.32;11.88;;;;;;;0.49;96.75;99885.25;5037059;28;20059;-72
2021/01/08 02:08:26;;;;;;;18.58;12.65;;;;;;;0.46;96.44;99885.31;5036876;28;20049;-70
2021/01/08 02:10:58;;;;;;;16.33;13.15;;;;;;;0.63;96.61;99911.16;5036738;28;20057;-71
2021/01/08 02:13:57;;;;;;;16.58;11.38;;;;;;;0.65;96.39;99917.28;5036427;28;20466;-71
2021/01/08 02:16:24;;;;;;;23.85;12.85;;;;;;;0.50;96.58;99902.72;5036294;28;20061;-71
2021/01/08 02:18:53;;;;;;;16.15;11.32;;;;;;;0.57;96.30;99919.19;5036598;28;20057;-72
2021/01/08 02:21:25;;;;;;;15.80;12.80;;;;;;;0.50;96.53;99906.22;5036203;28;20329;-72
2021/01/08 02:24:03;;;;;;;15.50;11.70;;;;;;;0.45;96.42;99915.09;5036273;28;20440;-71
2021/01/08 02:26:29;;;;;;;17.77;13.68;;;;;;;0.30;96.91;99911.06;5035509;28;20057;-71
2021/01/08 02:28:56;;;;;;;17.75;13.80;;;;;;;0.24;97.08;99920.81;5035763;28;20208;-72
2021/01/08 02:31:23;;;;;;;16.80;13.13;;;;;;;0.06;96.87;99897.59;5051726;28;20710;-72
2021/01/08 02:33:50;;;;;;;17.60;14.15;;;;;;;0.13;97.33;99921.03;5036302;28;20057;-71
2021/01/08 02:36:16;;;;;;;16.80;13.38;;;;;;;0.19;97.82;99919.16;5036340;28;20057;-71
2021/01/08 02:38:42;;;;;;;21.92;15.55;;;;;;;0.18;97.43;99915.69;5036059;28;20050;-72
2021/01/08 02:41:10;;;;;;;19.17;14.25;;;;;;;0.21;97.42;99918.25;5051324;28;20450;-72
2021/01/08 02:43:38;;;;;;;17.65;13.20;;;;;;;0.24;97.47;99917.31;5051283;28;20057;-71
2021/01/08 02:46:05;;;;;;;19.77;14.43;;;;;;;0.31;97.30;99918.91;5034692;28;20717;-70
2021/01/08 02:48:31;;;;;;;21.88;14.93;;;;;;;0.30;97.05;99925.06;5035803;28;20052;-69
2021/01/08 02:50:58;;;;;;;22.23;14.75;;;;;;;0.19;97.17;99908.66;5035874;28;20053;-69
2021/01/08 02:53:26;;;;;;;19.02;14.05;;;;;;;0.21;96.71;99927.91;5035674;28;20056;-70
2021/01/08 02:55:58;;;;;;;20.52;15.15;;;;;;;0.18;97.33;99917.44;5035579;28;20152;-71
2021/01/08 02:58:26;;;;;;;26.20;15.95;;;;;;;0.26;97.24;99933.88;5035655;28;20137;-70
2021/01/08 03:00:53;;;;;;;20.52;15.85;;;;;;;0.33;97.16;99934.63;5035823;28;20215;-72
2021/01/08 03:03:22;;;;;;;21.17;15.38;;;;;;;0.22;97.27;99927.84;5035686;28;20053;-70
2021/01/08 03:05:49;;;;;;;19.98;15.32;;;;;;;0.21;97.23;99933.16;5035534;28;20358;-71
2021/01/08 03:08:15;;;;;;;22.08;15.13;;;;;;;0.10;97.19;99934.22;5035693;28;20427;-70
2021/01/08 03:10:42;;;;;;;22.20;16.98;;;;;;;0.02;98.06;99928.28;5035931;28;20057;-72
2021/01/08 03:13:09;;;;;;;25.55;17.50;;;;;;;0.11;97.91;99932.47;5035953;28;20056;-70
2021/01/08 03:15:36;;;;;;;21.40;16.42;;;;;;;0.19;97.79;99933.16;5035734;28;20328;-71
2021/01/08 03:18:02;;;;;;;20.85;16.05;;;;;;;0.18;97.56;99928.81;5035391;28;20128;-71
2021/01/08 03:20:29;;;;;;;24.17;16.88;;;;;;;0.23;97.76;99926.94;5035493;28;20366;-72
2021/01/08 03:22:55;;;;;;;25.17;17.95;;;;;;;0.21;97.66;99935.78;5035908;28;20049;-72
2021/01/08 03:25:21;;;;;;;24.05;16.88;;;;;;;0.24;97.50;99930.44;5034897;28;20119;-69
2021/01/08 03:27:47;;;;;;;24.13;16.13;;;;;;;0.24;97.35;99927.81;5035577;28;20057;-72
2021/01/08 03:30:14;;;;;;;19.75;15.32;;;;;;;0.19;97.27;99933.16;5034987;28;20061;-70
2021/01/08 03:32:40;;;;;;;20.77;15.43;;;;;;;0.15;97.45;99933.28;5035048;28;20049;-71
2021/01/08 03:35:07;;;;;;;25.45;17.67;;;;;;;0.10;97.95;99926.34;5034957;28;20054;-72
2021/01/08 03:37:33;;;;;;;24.98;17.85;;;;;;;0.01;97.58;99915.19;5035116;28;20049;-72
2021/01/08 03:39:59;;;;;;;24.48;17.85;;;;;;;0.00;98.04;99930.09;5035208;28;20057;-70
2021/01/08 03:42:26;;;;;;;24.65;17.92;;;;;;;-0.01;98.30;99930.97;5035059;28;20053;-71
2021/01/08 03:44:52;;;;;;;27.77;17.60;;;;;;;0.04;97.93;99931.72;5035009;28;20049;-70
2021/01/08 03:47:18;;;;;;;26.50;18.58;;;;;;;-0.01;98.38;99928.34;5035258;28;20136;-70
2021/01/08 03:49:44;;;;;;;21.23;16.33;;;;;;;-0.01;97.79;99920.47;5034002;28;20065;-72
2021/01/08 03:52:11;;;;;;;22.30;16.38;;;;;;;-0.04;97.99;99933.66;5034730;28;20057;-70
2021/01/08 03:54:37;;;;;;;23.80;17.17;;;;;;;-0.09;98.28;99919.75;5034932;28;20390;-71
2021/01/08 03:57:04;;;;;;;24.10;16.35;;;;;;;-0.03;97.92;99925.75;5037504;28;20069;-69
2021/01/08 03:59:30;;;;;;;21.65;14.95;;;;;;;0.10;97.79;99938.59;5039150;28;20049;-71
2021/01/08 04:01:57;;;;;;;24.45;15.68;;;;;;;0.06;97.75;99924.69;5038724;28;20427;-70
2021/01/08 04:04:23;;;;;;;18.42;12.23;;;;;;;0.04;97.23;99929.09;5037788;28;20057;-71
2021/01/08 04:06:50;;;;;;;25.70;14.73;;;;;;;0.12;97.56;99937.69;5038558;28;20463;-71
2021/01/08 04:09:19;;;;;;;24.23;15.85;;;;;;;0.08;97.60;99933.41;5038709;28;20366;-69
2021/01/08 04:11:46;;;;;;;29.30;15.15;;;;;;;0.02;97.52;99917.78;5038763;28;20489;-71
2021/01/08 04:14:12;;;;;;;21.58;14.70;;;;;;;0.02;97.20;99923.03;5038782;28;20053;-71
2021/01/08 04:16:41;;;;;;;22.65;15.57;;;;;;;0.13;97.22;99926.28;5038527;28;20123;-71
2021/01/08 04:19:08;;;;;;;19.90;15.48;;;;;;;0.15;97.12;99938.53;5038770;28;20056;-70
2021/01/08 04:21:35;;;;;;;23.10;15.57;;;;;;;0.01;97.47;99917.81;5037431;28;20053;-72
2021/01/08 04:24:02;;;;;;;19.80;13.48;;;;;;;0.20;96.65;99931.41;5038561;28;20064;-70
2021/01/08 04:26:29;;;;;;;25.40;15.20;;;;;;;0.10;96.72;99936.84;5037286;28;20088;-71
2021/01/08 04:28:55;;;;;;;21.85;14.70;;;;;;;0.09;96.88;99934.25;5038489;28;20061;-70
2021/01/08 04:31:21;;;;;;;24.88;14.52;;;;;;;0.11;96.98;99937.72;5038562;28;20053;-69
2021/01/08 04:33:48;;;;;;;25.35;15.90;;;;;;;0.12;97.60;99936.81;5038434;28;20146;-72
2021/01/08 04:36:14;;;;;;;22.50;15.68;;;;;;;0.04;97.45;99926.47;5037434;28;20057;-72
2021/01/08 04:38:41;;;;;;;21.70;14.07;;;;;;;0.04;97.26;99936.97;5038159;28;20351;-70
2021/01/08 04:41:08;;;;;;;21.00;14.98;;;;;;;-0.05;97.16;99916.19;5037983;28;20053;-70
2021/01/08 04:43:35;;;;;;;24.92;15.57;;;;;;;0.00;97.87;99937.97;5038194;28;20049;-70
2021/01/08 04:46:25;;;;;;;26.23;15.52;;;;;;;0.01;97.44;99937.06;5038334;28;20049;-69
2021/01/08 04:49:05;;;;;;;25.48;14.93;;;;;;;-0.05;97.60;99943.28;5038206;28;20075;-69
2021/01/08 04:51:36;;;;;;;24.55;14.63;;;;;;;-0.06;98.02;99948.59;5053448;28;20435;-70
2021/01/08 04:54:05;;;;;;;21.77;13.43;;;;;;;-0.07;97.26;99934.59;5038097;28;20051;-68
2021/01/08 04:56:38;;;;;;;20.70;14.02;;;;;;;-0.07;97.57;99936.34;5037816;28;20085;-70
2021/01/08 04:59:04;;;;;;;18.30;14.00;;;;;;;-0.02;97.70;99947.59;5037180;28;20054;-71
2021/01/08 05:01:30;;;;;;;21.90;14.43;;;;;;;-0.02;97.37;99953.72;5054083;28;20053;-71
2021/01/08 05:03:57;;;;;;;17.92;13.43;;;;;;;0.06;97.39;99940.44;5038484;28;20084;-71
2021/01/08 05:06:23;;;;;;;18.85;13.70;;;;;;;-0.04;97.32;99938.91;5037983;28;20434;-69
2021/01/08 05:08:50;;;;;;;19.25;13.35;;;;;;;-0.16;97.52;99925.13;5053303;28;20065;-69
2021/01/08 05:11:46;;;;;;;19.30;14.05;;;;;;;-0.02;97.00;99939.72;5037650;28;20506;-70
2021/01/08 05:14:15;;;;;;;16.00;12.52;;;;;;;-0.02;97.54;99952.84;5035674;28;20053;-70
2021/01/08 05:16:41;;;;;;;18.92;12.05;;;;;;;0.00;97.23;99953.72;5037503;28;20099;-69
2021/01/08 05:19:08;;;;;;;18.33;13.10;;;;;;;0.02;97.16;99946.66;5037534;28;20754;-69
2021/01/08 05:21:35;;;;;;;19.90;13.25;;;;;;;-0.17;97.33;99918.16;5037350;28;20056;-69
2021/01/08 05:24:03;;;;;;;17.25;13.07;;;;;;;-0.23;97.31;99899.94;5037559;28;20050;-73
2021/01/08 05:26:30;;;;;;;19.17;13.45;;;;;;;0.07;97.12;99954.44;5037571;28;20049;-71
2021/01/08 05:28:58;;;;;;;20.35;12.98;;;;;;;0.01;96.76;99941.44;5037120;28;20045;-73
2021/01/08 05:31:27;;;;;;;20.83;13.75;;;;;;;0.04;97.28;99952.72;5036182;28;20052;-71
2021/01/08 05:33:56;;;;;;;;;;;;;;;0.06;97.02;99956.16;5037704;28;20065;-71
2021/01/08 05:36:24;;;;;;;21.77;14.60;;;;;;;-0.02;97.06;99944.97;5036880;28;20251;-72
2021/01/08 05:38:53;;;;;;;24.98;14.80;;;;;;;-0.06;97.27;99959.91;5037070;28;20082;-70
2021/01/08 05:41:22;;;;;;;25.80;15.73;;;;;;;-0.02;97.70;99963.34;5037094;28;20057;-73
2021/01/08 05:43:49;;;;;;;27.00;16.50;;;;;;;0.01;97.11;99958.06;5036865;28;20049;-70
2021/01/08 05:46:20;;;;;;;27.13;15.45;;;;;;;0.06;97.23;99957.94;5037012;28;20053;-70
2021/01/08 05:48:51;;;;;;;25.98;14.93;;;;;;;0.02;97.43;99959.78;5036781;28;20400;-69
2021/01/08 05:51:22;;;;;;;23.35;15.57;;;;;;;-0.05;97.52;99966.06;5036877;28;20339;-69
2021/01/08 05:53:51;;;;;;;21.35;14.90;;;;;;;0.02;97.31;99967.66;5036723;28;20321;-70
2021/01/08 05:56:18;;;;;;;20.17;12.65;;;;;;;-0.04;97.44;99962.53;5036808;28;20127;-71
2021/01/08 05:58:45;;;;;;;23.33;14.90;;;;;;;-0.29;97.50;99934.16;5036781;28;20072;-69
2021/01/08 06:01:12;;;;;;;22.40;16.55;;;;;;;-0.22;97.58;99967.22;5036803;28;20049;-70
2021/01/08 06:03:40;;;;;;;24.20;15.40;;;;;;;-0.22;97.92;99967.22;5036533;28;20136;-70
2021/01/08 06:06:09;;;;;;;24.35;16.23;;;;;;;-0.27;98.41;99963.84;5036207;28;20049;-71
2021/01/08 06:08:54;;;;;;;24.55;16.50;;;;;;;-0.26;98.32;99969.94;5036082;28;20082;-70
2021/01/08 06:11:26;;;;;;;28.20;16.95;;;;;;;-0.20;98.20;99973.34;5036552;28;20095;-69
2021/01/08 06:13:54;;;;;;;25.45;15.85;;;;;;;-0.13;97.82;99975.84;5036234;28;20134;-70
2021/01/08 06:16:22;;;;;;;25.27;15.70;;;;;;;-0.15;97.95;99973.25;5036270;28;20454;-69
2021/01/08 06:18:55;;;;;;;28.40;17.42;;;;;;;-0.21;98.18;99962.88;5035962;28;20049;-70
2021/01/08 06:21:35;;;;;;;32.42;17.35;;;;;;;-0.21;97.56;99974.19;5036834;28;20057;-69
2021/01/08 06:24:02;;;;;;;25.50;16.73;;;;;;;-0.26;98.05;99969.94;5036141;28;20427;-70
2021/01/08 06:26:30;;;;;;;25.00;16.90;;;;;;;-0.21;98.01;99973.34;5036430;28;20050;-72
2021/01/08 06:29:01;;;;;;;26.98;16.80;;;;;;;-0.13;97.78;99974.06;5036215;28;20061;-71
2021/01/08 06:31:36;;;;;;;23.38;15.88;;;;;;;-0.19;97.93;99977.69;5036440;28;20057;-70
2021/01/08 06:34:03;;;;;;;29.15;17.55;;;;;;;-0.23;97.88;99981.25;5035481;28;20072;-72
2021/01/08 06:36:32;;;;;;;28.52;17.08;;;;;;;-0.26;98.49;99981.31;5036013;28;20132;-71
2021/01/08 06:39:06;;;;;;;26.88;18.70;;;;;;;-0.42;98.47;99971.09;5035753;28;20737;-70
2021/01/08 06:41:32;;;;;;;31.58;17.80;;;;;;;-0.26;98.40;99994.44;5035665;28;20045;-69
2021/01/08 06:44:01;;;;;;;33.10;19.38;;;;;;;-0.24;98.86;99994.38;5051444;28;20057;-70
2021/01/08 06:46:42;;;;;;;28.48;18.60;;;;;;;-0.22;98.61;100000.47;5036660;28;20053;-70
2021/01/08 06:49:12;;;;;;;29.98;19.67;;;;;;;-0.23;98.53;99989.13;5035585;28;20041;-70
2021/01/08 06:51:40;;;;;;;39.50;19.92;;;;;;;-0.13;97.91;100009.94;5035390;28;20045;-73
2021/01/08 06:54:09;;;;;;;33.80;19.30;;;;;;;-0.13;98.21;100012.56;5017864;28;20049;-73
2021/01/08 06:56:44;;;;;;;32.33;18.05;;;;;;;-0.18;98.10;100005.63;5032924;28;20052;-70
2021/01/08 06:59:17;;;;;;;32.72;19.35;;;;;;;-0.09;97.92;100008.97;5034005;28;20053;-71
2021/01/08 07:01:57;;;;;;;30.08;18.77;;;;;;;-0.13;97.75;100017.81;5035472;28;20057;-71
2021/01/08 07:04:30;;;;;;;25.35;16.58;;;;;;;-0.06;97.76;100014.19;5033211;28;20054;-72
2021/01/08 07:07:11;;;;;;;30.42;16.65;;;;;;;-0.01;97.78;100020.16;5034170;28;20057;-71
2021/01/08 07:09:40;;;;;;;26.90;17.73;;;;;;;-0.05;97.87;100022.00;5030640;28;20049;-73
2021/01/08 07:12:11;;;;;;;29.98;17.48;;;;;;;-0.01;97.50;100031.53;5033815;28;20063;-71
2021/01/08 07:14:38;;;;;;;31.53;13.57;;;;;;;0.00;97.88;100035.06;5050052;28;20604;-70
2021/01/08 07:17:15;;;;;;;25.05;16.88;;;;;;;-0.03;97.73;100037.72;5035211;28;20053;-70
2021/01/08 07:19:45;;;;;;;30.92;16.73;;;;;;;0.00;97.87;100042.91;5032865;28;20427;-71
2021/01/08 07:22:19;;;;;;;24.02;17.17;;;;;;;-0.03;97.44;100040.34;5032344;28;20053;-72
2021/01/08 07:24:48;;;;;;;25.30;15.98;;;;;;;-0.11;97.69;100042.25;5034807;28;20131;-71
2021/01/08 07:27:14;;;;;;;26.52;16.25;;;;;;;-0.09;97.82;100043.06;5031753;28;20053;-71
2021/01/08 07:29:41;;;;;;;31.00;17.63;;;;;;;-0.07;97.27;100054.41;5034310;28;20133;-72
2021/01/08 07:32:10;;;;;;;25.37;16.70;;;;;;;-0.11;97.92;100047.50;5034181;28;20175;-70
2021/01/08 07:34:36;;;;;;;24.88;16.98;;;;;;;-0.21;97.97;100042.41;5036196;28;20307;-73
2021/01/08 07:37:03;;;;;;;25.67;17.10;;;;;;;-0.22;97.65;100045.91;5049780;28;20045;-70
2021/01/08 07:39:40;;;;;;;29.80;18.83;;;;;;;-0.15;98.18;100060.66;5035427;28;20052;-74
2021/01/08 07:42:32;;;;;;;26.38;17.45;;;;;;;-0.13;97.73;100060.63;5034744;28;20045;-72
2021/01/08 07:44:59;;;;;;;24.80;17.52;;;;;;;-0.11;97.89;100065.88;5031792;28;20108;-70
2021/01/08 07:47:28;;;;;;;32.85;18.92;;;;;;;-0.15;97.89;100063.28;5034813;28;20068;-70
2021/01/08 07:50:14;;;;;;;32.70;19.67;;;;;;;-0.12;97.66;100066.75;5046793;28;20459;-74
2021/01/08 07:52:45;;;;;;;28.23;18.92;;;;;;;-0.14;97.77;100069.41;5032647;28;20045;-71
2021/01/08 07:55:12;;;;;;;34.38;19.08;;;;;;;-0.13;97.98;100084.25;5035236;28;20053;-71
2021/01/08 07:58:05;;;;;;;29.52;18.88;;;;;;;-0.14;98.08;100079.91;5034394;28;20046;-70
2021/01/08 08:00:33;;;;;;;30.40;19.15;;;;;;;-0.21;98.13;100078.28;5036573;28;20053;-70
2021/01/08 08:03:05;;;;;;;28.60;19.52;;;;;;;-0.15;98.45;100086.88;5036820;28;20053;-68
2021/01/08 08:05:31;;;;;;;34.08;19.80;;;;;;;-0.06;98.09;100092.88;5051012;28;20056;-71
2021/01/08 08:08:02;;;;;;;29.25;18.65;;;;;;;-0.02;97.99;100099.78;5034174;28;20085;-70
2021/01/08 08:10:30;;;;;;;32.85;19.08;;;;;;;0.02;97.13;100097.97;5033993;28;20136;-72
2021/01/08 08:12:57;;;;;;;33.47;21.48;;;;;;;0.01;97.50;100102.38;5031528;28;20053;-72
2021/01/08 08:15:23;;;;;;;30.88;19.30;;;;;;;-0.13;97.82;100091.28;5039998;28;20332;-73
2021/01/08 08:17:50;;;;;;;32.47;19.27;;;;;;;-0.06;97.66;100108.63;5039536;28;20053;-70
2021/01/08 08:20:23;;;;;;;31.98;20.20;;;;;;;-0.01;97.87;100109.38;5034577;28;20045;-74
2021/01/08 08:22:54;;;;;;;35.17;21.48;;;;;;;-0.05;97.79;100123.47;5033835;28;20057;-72
2021/01/08 08:25:30;;;;;;;35.22;21.35;;;;;;;-0.06;98.01;100113.88;5036077;28;20053;-69
2021/01/08 08:28:00;;;;;;;37.20;20.70;;;;;;;-0.15;97.94;100113.13;5031613;28;20343;-72
2021/01/08 08:30:28;;;;;;;35.88;20.25;;;;;;;-0.09;98.05;100127.03;5047113;28;20061;-70
2021/01/08 08:32:54;;;;;;;40.55;21.83;;;;;;;-0.09;98.14;100130.53;5032566;28;20060;-69
2021/01/08 08:35:21;;;;;;;39.55;22.05;;;;;;;-0.04;98.46;100136.53;5033199;28;20042;-69
2021/01/08 08:37:49;;;;;;;38.28;21.80;;;;;;;-0.07;98.02;100135.72;5032657;28;20085;-69
2021/01/08 08:40:20;;;;;;;38.08;22.35;;;;;;;-0.04;97.96;100130.44;5028135;28;20160;-71
2021/01/08 08:42:50;;;;;;;33.78;21.15;;;;;;;0.01;98.14;100144.34;5051314;28;20157;-71
2021/01/08 08:45:19;;;;;;;34.00;20.40;;;;;;;0.06;97.72;100141.66;5037390;28;20045;-72
2021/01/08 08:47:50;;;;;;;36.45;22.27;;;;;;;0.04;97.42;100131.16;5059221;28;20103;-70
2021/01/08 08:50:18;;;;;;;34.40;21.02;;;;;;;0.07;97.67;100136.38;5018251;28;20076;-69
2021/01/08 08:52:48;;;;;;;37.85;21.45;;;;;;;0.01;97.14;100138.22;5018342;28;20435;-69
2021/01/08 08:55:31;;;;;;;42.10;22.80;;;;;;;-0.02;97.30;100120.78;5016384;28;20062;-72
2021/01/08 08:58:11;;;;;;;37.08;21.48;;;;;;;0.20;97.06;100149.25;5018024;28;20050;-72
2021/01/08 09:00:42;;;;;;;40.13;23.33;;;;;;;0.23;97.36;100151.84;5017719;28;20045;-71
2021/01/08 09:03:19;;;;;;;41.90;22.77;;;;;;;0.17;97.03;100138.81;5035858;28;20402;-70
2021/01/08 09:05:48;;;;;;;38.45;22.05;;;;;;;0.30;96.69;100157.84;5034473;28;20046;-72
2021/01/08 09:08:21;;;;;;;44.22;22.98;;;;;;;0.27;97.04;100153.50;5035804;28;20042;-73
2021/01/08 09:11:09;;;;;;;38.10;21.05;;;;;;;0.28;96.71;100160.50;5033959;28;20074;-70
2021/01/08 09:13:59;;;;;;;36.88;23.13;;;;;;;0.36;96.78;100157.72;5036197;28;20081;-71
2021/01/08 09:16:34;;;;;;;45.90;22.25;;;;;;;0.29;96.78;100158.72;5034711;28;20423;-71
2021/01/08 09:19:07;;;;;;;37.08;21.58;;;;;;;0.26;97.08;100157.03;5037508;28;20057;-71
2021/01/08 09:21:41;;;;;;;39.28;22.30;;;;;;;0.25;97.00;100166.69;5037195;28;20081;-72
2021/01/08 09:24:14;;;;;;;36.25;22.15;;;;;;;0.29;96.99;100166.59;5037335;28;20057;-74
2021/01/08 09:26:44;;;;;;;35.78;21.70;;;;;;;0.31;96.63;100165.69;5037229;28;20057;-71
2021/01/08 09:29:11;;;;;;;36.10;22.55;;;;;;;0.25;96.76;100166.69;5036811;28;20354;-69
2021/01/08 09:31:39;;;;;;;39.28;24.23;;;;;;;0.20;97.34;100170.25;5037106;28;20056;-70
2021/01/08 09:34:07;;;;;;;37.58;23.55;;;;;;;0.30;97.14;100184.97;5037381;28;20068;-70
2021/01/08 09:36:36;;;;;;;35.85;22.90;;;;;;;0.31;96.89;100184.06;5037287;28;20053;-70
2021/01/08 09:39:04;;;;;;;38.45;22.17;;;;;;;0.30;97.26;100181.47;5037178;28;20140;-70
2021/01/08 09:41:34;;;;;;;43.60;22.88;;;;;;;0.32;97.25;100177.91;5036151;28;20053;-71
2021/01/08 09:44:02;;;;;;;;;;;;;;;0.44;96.50;100183.84;5036937;28;20049;-72
2021/01/08 09:46:28;;;;;;;35.45;21.05;;;;;;;0.49;96.66;100188.09;5035884;28;19932;-69
2021/01/08 09:49:04;;;;;;;45.85;22.35;;;;;;;0.48;96.67;100186.38;5036623;28;20108;-70
2021/01/08 09:51:31;;;;;;;37.60;22.80;;;;;;;0.51;96.34;100193.34;5037024;28;20080;-69
2021/01/08 09:53:57;;;;;;;32.80;20.35;;;;;;;0.55;96.38;100189.78;5035553;28;20049;-69
2021/01/08 09:56:23;;;;;;;38.67;21.02;;;;;;;0.66;96.00;100193.03;5035991;28;20053;-69
2021/01/08 09:59:16;;;;;;;41.22;21.17;;;;;;;0.67;95.97;100193.91;5035165;28;20045;-69
2021/01/08 10:01:54;;;;;;;41.78;20.75;;;;;;;0.71;96.34;100194.72;5037026;28;20053;-69
2021/01/08 10:04:29;;;;;;;33.25;19.15;;;;;;;0.77;95.62;100199.84;5035759;28;20155;-69
2021/01/08 10:06:59;;;;;;;35.45;22.17;;;;;;;0.77;96.21;100199.84;5036610;28;20046;-69
2021/01/08 10:09:26;;;;;;;31.83;21.38;;;;;;;0.78;95.67;100201.56;5036130;28;20432;-70
2021/01/08 10:11:59;;;;;;;35.83;21.05;;;;;;;0.77;95.58;100202.47;5044766;28;20041;-69
2021/01/08 10:14:30;;;;;;;31.67;21.05;;;;;;;0.77;95.58;100202.47;5036680;28;20130;-69
2021/01/08 10:17:11;;;;;;;34.83;21.85;;;;;;;0.78;95.49;100201.56;5036278;28;20049;-70
2021/01/08 10:19:42;;;;;;;37.28;22.65;;;;;;;0.64;95.65;100207.97;5036183;28;20382;-70
2021/01/08 10:22:09;;;;;;;35.45;21.08;;;;;;;0.67;95.78;100207.03;5034712;28;20061;-74
2021/01/08 10:24:36;;;;;;;36.25;21.90;;;;;;;0.65;96.30;100209.69;5034464;28;20049;-71
2021/01/08 10:27:03;;;;;;;36.88;23.77;;;;;;;0.66;96.12;100202.69;5036181;28;20057;-72
2021/01/08 10:29:38;;;;;;;36.38;20.70;;;;;;;0.78;95.75;100212.09;5035889;28;20057;-71
2021/01/08 10:32:12;;;;;;;39.95;23.35;;;;;;;0.75;95.99;100206.88;5039644;28;20057;-71
2021/01/08 10:34:44;;;;;;;39.95;22.88;;;;;;;0.75;95.84;100206.88;5052848;28;20061;-74
2021/01/08 10:37:17;;;;;;;;;;;;;;;0.81;95.41;100206.75;5034258;28;20091;-71
2021/01/08 10:39:46;;;;;;;34.40;21.67;;;;;;;0.80;95.47;100205.03;5038661;28;19924;-71
2021/01/08 10:42:14;;;;;;;33.67;20.88;;;;;;;0.82;95.42;100208.50;5036021;28;20079;-72
2021/01/08 10:44:42;;;;;;;39.30;24.13;;;;;;;0.76;95.45;100198.13;5035743;28;20140;-71
2021/01/08 10:47:09;;;;;;;43.70;22.90;;;;;;;0.85;95.54;100210.19;5034378;28;20351;-71
2021/01/08 10:49:48;;;;;;;39.38;23.90;;;;;;;0.91;95.19;100213.56;5040941;28;20045;-75
2021/01/08 10:52:14;;;;;;;38.13;22.48;;;;;;;0.93;95.71;100217.03;5036157;28;20394;-72
2021/01/08 10:54:40;;;;;;;36.40;23.58;;;;;;;0.86;95.48;100214.56;5044469;28;20045;-70
2021/01/08 10:57:06;;;;;;;39.72;22.88;;;;;;;0.81;95.64;100222.53;5055464;28;20049;-70
2021/01/08 10:59:32;;;;;;;41.95;23.88;;;;;;;0.97;95.28;100214.34;5045828;28;20053;-70
2021/01/08 11:01:59;;;;;;;43.30;23.92;;;;;;;0.97;95.51;100220.47;5041157;28;20346;-71
2021/01/08 11:04:37;;;;;;;40.25;23.05;;;;;;;0.94;95.70;100216.13;5035538;28;20081;-70
2021/01/08 11:07:03;;;;;;;39.75;23.58;;;;;;;0.94;95.57;100213.50;5034265;28;20140;-71
2021/01/08 11:09:29;;;;;;;36.15;21.88;;;;;;;1.01;95.47;100214.25;5033761;28;20111;-73
2021/01/08 11:11:55;;;;;;;34.45;22.58;;;;;;;1.13;95.27;100214.91;5033715;28;20099;-74
2021/01/08 11:14:22;;;;;;;36.55;22.70;;;;;;;1.12;95.39;100210.53;5032243;28;20484;-72
2021/01/08 11:16:48;;;;;;;36.45;22.80;;;;;;;1.10;95.01;100207.06;5034615;28;20053;-71
2021/01/08 11:19:14;;;;;;;38.72;23.40;;;;;;;1.04;94.88;100205.44;5053681;28;20053;-70
2021/01/08 11:21:41;;;;;;;45.63;25.52;;;;;;;1.00;94.98;100209.91;5035012;28;20049;-70
2021/01/08 11:24:08;;;;;;;40.67;24.30;;;;;;;0.99;95.68;100209.91;5033641;28;20056;-71
2021/01/08 11:26:35;;;;;;;40.60;23.58;;;;;;;0.95;95.12;100211.75;5031380;28;20343;-75
2021/01/08 11:29:01;;;;;;;45.90;25.35;;;;;;;0.97;95.44;100207.31;5034102;28;20064;-75
2021/01/08 11:31:35;;;;;;;45.00;24.25;;;;;;;0.94;95.69;100212.66;5039951;28;20061;-70